Time;durP1;ratioP1;P1;durP2;ratioP2;P2;SDS_P1;SDS_P2;PMS_P1;PMS_P2;Temp;Humidity;BMP_temperature;BMP_pressure;BME280_temperature;BME280_humidity;BME280_pressure;Samples;Min_cycle;Max_cycle;Signal;HPM_P1;HPM_P2
2022/06/27 00:02:09;;;;;;;;;;;17.50;99.90;;;;;;5099594;27;19915;-76
2022/06/27 00:04:34;;;;;;;;;;;17.50;99.90;;;;;;5116561;27;19919;-76
2022/06/27 00:07:00;;;;;;;;;;;17.40;99.90;;;;;;5115459;27;19923;-75
2022/06/27 00:09:26;;;;;;;;;;;17.50;99.90;;;;;;5114636;27;19920;-76
2022/06/27 00:11:51;;;;;;;;;;;17.40;99.90;;;;;;5114241;27;19919;-76
2022/06/27 00:14:17;;;;;;;;;;;17.50;99.90;;;;;;5116857;27;19915;-75
2022/06/27 00:16:42;;;;;;;;;;;17.40;99.90;;;;;;5134906;27;20396;-76
2022/06/27 00:19:08;;;;;;;;;;;17.50;99.90;;;;;;5116435;27;20134;-76
2022/06/27 00:21:33;;;;;;;;;;;17.50;99.90;;;;;;5116047;27;19930;-76
2022/06/27 00:23:59;;;;;;;;;;;17.40;99.90;;;;;;5114447;27;20665;-76
2022/06/27 00:26:25;;;;;;;;;;;17.40;99.90;;;;;;5114677;27;19915;-76
2022/06/27 00:28:51;;;;;;;;;;;17.40;99.90;;;;;;5114858;27;19923;-76
2022/06/27 00:31:17;;;;;;;;;;;17.40;99.90;;;;;;5114781;27;19915;-76
2022/06/27 00:33:42;;;;;;;;;;;17.40;99.90;;;;;;5114215;27;20018;-76
2022/06/27 00:36:08;;;;;;;;;;;17.40;99.90;;;;;;5114296;27;19919;-76
2022/06/27 00:38:33;;;;;;;;;;;17.30;99.90;;;;;;5114115;27;19915;-76
2022/06/27 00:40:59;;;;;;;;;;;17.40;99.90;;;;;;5097218;27;19964;-75
2022/06/27 00:43:24;;;;;;;;;;;17.30;99.90;;;;;;5112458;27;20303;-75
2022/06/27 00:45:50;;;;;;;;;;;17.30;99.90;;;;;;5114975;27;19923;-76
2022/06/27 00:48:15;;;;;;;;;;;17.20;99.90;;;;;;5114298;27;19916;-75
2022/06/27 00:50:41;;;;;;;;;;;17.20;99.90;;;;;;5115650;27;19919;-76
2022/06/27 00:53:07;;;;;;;;;;;17.30;99.90;;;;;;5114900;27;19971;-76
2022/06/27 00:55:33;;;;;;;;;;;17.20;99.90;;;;;;5114104;27;20634;-75
2022/06/27 00:58:00;;;;;;;;;;;17.20;99.90;;;;;;5114361;27;19922;-75
2022/06/27 01:00:25;;;;;;;;;;;17.20;99.90;;;;;;5112049;27;20371;-75
2022/06/27 01:02:51;;;;;;;;;;;17.10;99.90;;;;;;5112856;27;19923;-76
2022/06/27 01:05:16;;;;;;;;;;;17.10;99.90;;;;;;5114397;27;19915;-76
2022/06/27 01:07:42;;;;;;;;;;;17.10;99.90;;;;;;5107177;27;19915;-76
2022/06/27 01:10:08;;;;;;;;;;;17.10;99.90;;;;;;5108729;27;20018;-76
2022/06/27 01:12:34;;;;;;;;;;;17.10;99.90;;;;;;5115436;27;19921;-75
2022/06/27 01:15:00;;;;;;;;;;;17.10;99.90;;;;;;5115544;27;19929;-75
2022/06/27 01:17:26;;;;;;;;;;;17.10;99.90;;;;;;5112513;27;19969;-75
2022/06/27 01:19:52;;;;;;;;;;;17.10;99.90;;;;;;5113585;27;19959;-75
2022/06/27 01:22:17;;;;;;;;;;;17.10;99.90;;;;;;5113975;27;19998;-75
2022/06/27 01:24:43;;;;;;;;;;;17.00;99.90;;;;;;5113303;27;20010;-76
2022/06/27 01:27:09;;;;;;;;;;;17.00;99.90;;;;;;5113199;27;19922;-75
2022/06/27 01:29:34;;;;;;;;;;;17.10;99.90;;;;;;5092871;28;20305;-76
2022/06/27 01:32:00;;;;;;;;;;;17.10;99.90;;;;;;5088539;27;20422;-75
2022/06/27 01:34:26;;;;;;;;;;;17.10;99.90;;;;;;5102535;27;19919;-75
2022/06/27 01:36:51;;;;;;;;;;;17.00;99.90;;;;;;5105772;28;19915;-75
2022/06/27 01:39:24;;;;;;;;;;;17.00;99.90;;;;;;5109474;27;19923;-75
2022/06/27 01:41:51;;;;;;;;;;;17.00;99.90;;;;;;5114195;27;20398;-76
2022/06/27 01:44:17;;;;;;;;;;;17.00;99.90;;;;;;5112252;27;19926;-76
2022/06/27 01:46:43;;;;;;;;;;;17.00;99.90;;;;;;5113066;27;19965;-76
2022/06/27 01:49:08;;;;;;;;;;;16.90;99.90;;;;;;5109010;27;19955;-75
2022/06/27 01:51:35;;;;;;;;;;;16.90;99.90;;;;;;5096854;27;19916;-75
2022/06/27 01:54:01;;;;;;;;;;;17.00;99.90;;;;;;5110308;27;20495;-75
2022/06/27 01:56:26;;;;;;;;;;;17.00;99.90;;;;;;5100591;27;20002;-76
2022/06/27 01:58:57;;;;;;;;;;;17.00;99.90;;;;;;5113296;27;19919;-75
2022/06/27 02:01:26;;;;;;;;;;;16.90;99.90;;;;;;5112183;27;19919;-76
2022/06/27 02:03:52;;;;;;;;;;;17.00;99.90;;;;;;5108219;27;19929;-76
2022/06/27 02:06:18;;;;;;;;;;;16.90;99.90;;;;;;5111248;27;19919;-76
2022/06/27 02:08:46;;;;;;;;;;;16.90;99.90;;;;;;5096018;27;19919;-76
2022/06/27 02:11:14;;;;;;;;;;;16.90;99.90;;;;;;5113082;27;19920;-76
2022/06/27 02:13:41;;;;;;;;;;;16.80;99.90;;;;;;5110777;28;19955;-77
2022/06/27 02:16:06;;;;;;;;;;;16.90;99.90;;;;;;5113538;28;19927;-77
2022/06/27 02:18:32;;;;;;;;;;;16.90;99.90;;;;;;5112727;28;19919;-77
2022/06/27 02:20:58;;;;;;;;;;;16.80;99.90;;;;;;5096462;28;19971;-76
2022/06/27 02:23:24;;;;;;;;;;;16.80;99.90;;;;;;5110306;28;19945;-76
2022/06/27 02:25:50;;;;;;;;;;;16.70;99.90;;;;;;5113774;28;19922;-75
2022/06/27 02:28:16;;;;;;;;;;;16.70;99.90;;;;;;5113192;28;20467;-75
2022/06/27 02:30:42;;;;;;;;;;;16.80;99.90;;;;;;5095546;28;19946;-75
2022/06/27 02:33:08;;;;;;;;;;;16.70;99.90;;;;;;5113091;28;19915;-75
2022/06/27 02:35:34;;;;;;;;;;;16.80;99.90;;;;;;5113090;28;19961;-75
2022/06/27 02:38:00;;;;;;;;;;;16.70;99.90;;;;;;5100267;28;19959;-75
2022/06/27 02:40:29;;;;;;;;;;;16.70;99.90;;;;;;5113890;28;20013;-76
2022/06/27 02:42:57;;;;;;;;;;;16.70;99.90;;;;;;5111754;28;19999;-76
2022/06/27 02:45:24;;;;;;;;;;;16.70;99.90;;;;;;5112271;28;19916;-75
2022/06/27 02:47:50;;;;;;;;;;;16.70;99.90;;;;;;5112026;27;19934;-76
2022/06/27 02:50:16;;;;;;;;;;;16.70;99.90;;;;;;5116840;27;19919;-75
2022/06/27 02:52:45;;;;;;;;;;;16.70;99.90;;;;;;5098869;27;20204;-76
2022/06/27 02:55:15;;;;;;;;;;;16.80;99.90;;;;;;5117926;27;19920;-76
2022/06/27 02:57:43;;;;;;;;;;;16.80;99.90;;;;;;5118156;27;19915;-75
2022/06/27 03:00:09;;;;;;;;;;;16.70;99.90;;;;;;5100402;27;20405;-76
2022/06/27 03:02:36;;;;;;;;;;;16.70;99.90;;;;;;5115715;27;20006;-75
2022/06/27 03:05:02;;;;;;;;;;;16.70;99.90;;;;;;5115290;27;20381;-75
2022/06/27 03:07:27;;;;;;;;;;;16.80;99.90;;;;;;5098401;27;19916;-75
2022/06/27 03:09:53;;;;;;;;;;;16.80;99.90;;;;;;5114904;27;19922;-75
2022/06/27 03:12:18;;;;;;;;;;;16.70;99.90;;;;;;5116996;27;20565;-75
2022/06/27 03:14:44;;;;;;;;;;;16.80;99.90;;;;;;5116854;27;19965;-75
2022/06/27 03:17:10;;;;;;;;;;;16.80;99.90;;;;;;5116078;27;19926;-75
2022/06/27 03:19:35;;;;;;;;;;;16.90;99.90;;;;;;5104249;27;19966;-75
2022/06/27 03:22:01;;;;;;;;;;;16.90;99.90;;;;;;5112518;27;19923;-75
2022/06/27 03:24:26;;;;;;;;;;;16.70;99.90;;;;;;5115179;27;19918;-75
2022/06/27 03:26:52;;;;;;;;;;;16.80;99.90;;;;;;5114950;27;19915;-76
2022/06/27 03:29:17;;;;;;;;;;;16.70;99.90;;;;;;5096835;27;19922;-75
2022/06/27 03:31:44;;;;;;;;;;;16.80;99.90;;;;;;5112680;27;19964;-76
2022/06/27 03:34:10;;;;;;;;;;;16.80;99.90;;;;;;5116458;27;20080;-76
2022/06/27 03:36:36;;;;;;;;;;;16.80;99.90;;;;;;5117490;27;20406;-70
2022/06/27 03:39:01;;;;;;;;;;;16.80;99.90;;;;;;5113978;27;20361;-70
2022/06/27 03:41:27;;;;;;;;;;;16.80;99.90;;;;;;5108903;27;20042;-70
2022/06/27 03:43:53;;;;;;;;;;;16.80;99.90;;;;;;5114780;27;20259;-70
2022/06/27 03:46:18;;;;;;;;;;;16.70;99.90;;;;;;5113560;27;19958;-70
2022/06/27 03:51:28;;;;;;;;;;;16.80;99.90;;;;;;5114431;27;19923;-70
2022/06/27 03:53:53;;;;;;;;;;;16.70;99.90;;;;;;5114409;27;19920;-70
2022/06/27 03:56:19;;;;;;;;;;;16.80;99.90;;;;;;5115014;27;19919;-70
2022/06/27 03:58:45;;;;;;;;;;;16.80;99.90;;;;;;5104600;27;19926;-70
2022/06/27 04:01:11;;;;;;;;;;;16.80;99.90;;;;;;5089792;27;20342;-70
2022/06/27 04:03:36;;;;;;;;;;;16.70;99.90;;;;;;5098058;27;19926;-70
2022/06/27 04:06:02;;;;;;;;;;;16.80;99.90;;;;;;5116154;27;20335;-75
2022/06/27 04:08:27;;;;;;;;;;;16.70;99.90;;;;;;5098876;27;19919;-75
2022/06/27 04:10:54;;;;;;;;;;;16.70;99.90;;;;;;5113974;27;19954;-75
2022/06/27 04:13:19;;;;;;;;;;;16.80;99.90;;;;;;5096476;27;19943;-75
2022/06/27 04:15:45;;;;;;;;;;;16.70;99.90;;;;;;5105784;27;19966;-75
2022/06/27 04:18:10;;;;;;;;;;;16.70;99.90;;;;;;5116402;27;19916;-75
2022/06/27 04:20:36;;;;;;;;;;;16.80;99.90;;;;;;5116888;27;19926;-75
2022/06/27 04:23:01;;;;;;;;;;;16.80;99.90;;;;;;5116616;27;20006;-75
2022/06/27 04:25:27;;;;;;;;;;;16.70;99.90;;;;;;5080348;27;19977;-76
2022/06/27 04:27:53;;;;;;;;;;;16.90;99.90;;;;;;5116590;27;19919;-75
2022/06/27 04:30:18;;;;;;;;;;;16.90;99.90;;;;;;5116214;27;20297;-76
2022/06/27 04:32:45;;;;;;;;;;;16.90;99.90;;;;;;5099057;27;19915;-75
2022/06/27 04:35:12;;;;;;;;;;;16.90;99.90;;;;;;5115584;27;19971;-75
2022/06/27 04:37:42;;;;;;;;;;;16.90;99.90;;;;;;5113532;27;19940;-75
2022/06/27 04:40:10;;;;;;;;;;;16.90;99.90;;;;;;5098486;27;19919;-75
2022/06/27 04:42:35;;;;;;;;;;;16.80;99.90;;;;;;5113151;27;19920;-75
2022/06/27 04:45:02;;;;;;;;;;;16.80;99.90;;;;;;5110647;27;19945;-75
2022/06/27 04:47:28;;;;;;;;;;;16.70;99.90;;;;;;5114898;27;20009;-75
2022/06/27 04:49:54;;;;;;;;;;;16.80;99.90;;;;;;5115237;27;19954;-75
2022/06/27 04:52:20;;;;;;;;;;;16.70;99.90;;;;;;5114770;27;19970;-75
2022/06/27 04:54:46;;;;;;;;;;;16.80;99.90;;;;;;5115004;27;19926;-75
2022/06/27 04:57:12;;;;;;;;;;;16.80;99.90;;;;;;5114973;27;19915;-75
2022/06/27 04:59:38;;;;;;;;;;;16.70;99.90;;;;;;5110210;28;19926;-75
2022/06/27 05:02:03;;;;;;;;;;;16.90;99.90;;;;;;5111631;28;19916;-75
2022/06/27 05:04:30;;;;;;;;;;;16.80;99.90;;;;;;5106744;27;19959;-70
2022/06/27 05:06:55;;;;;;;;;;;16.90;99.90;;;;;;5110543;27;19919;-70
2022/06/27 05:09:21;;;;;;;;;;;16.90;99.90;;;;;;5111627;28;19968;-71
2022/06/27 05:11:50;;;;;;;;;;;16.90;99.90;;;;;;5108085;28;20303;-70
2022/06/27 05:14:16;;;;;;;;;;;17.00;99.90;;;;;;5121004;27;20026;-70
2022/06/27 05:16:41;;;;;;;;;;;17.00;99.90;;;;;;5110713;28;20356;-71
2022/06/27 05:19:07;;;;;;;;;;;17.00;99.90;;;;;;5109410;28;20587;-71
2022/06/27 05:21:32;;;;;;;;;;;16.90;99.90;;;;;;5110441;28;20397;-74
2022/06/27 05:23:58;;;;;;;;;;;16.90;99.90;;;;;;5111364;28;19963;-69
2022/06/27 05:26:23;;;;;;;;;;;16.90;99.90;;;;;;5105326;28;19924;-69
2022/06/27 05:28:49;;;;;;;;;;;16.90;99.90;;;;;;5105968;28;19938;-71
2022/06/27 05:31:15;;;;;;;;;;;16.80;99.90;;;;;;5104586;28;19915;-76
2022/06/27 05:33:41;;;;;;;;;;;17.00;99.90;;;;;;5107054;28;20002;-77
2022/06/27 05:36:06;;;;;;;;;;;17.00;99.90;;;;;;5108229;28;19919;-76
2022/06/27 05:38:32;;;;;;;;;;;17.00;99.90;;;;;;5086054;28;19922;-77
2022/06/27 05:40:59;;;;;;;;;;;16.90;99.90;;;;;;5107175;27;19920;-76
2022/06/27 05:43:25;;;;;;;;;;;16.90;99.90;;;;;;5101167;28;19920;-77
2022/06/27 05:45:51;;;;;;;;;;;16.90;99.90;;;;;;5101237;28;20369;-76
2022/06/27 05:48:19;;;;;;;;;;;16.90;99.90;;;;;;5099700;28;20366;-76
2022/06/27 05:50:44;;;;;;;;;;;17.00;99.90;;;;;;5098968;28;20405;-76
2022/06/27 05:53:10;;;;;;;;;;;17.00;99.90;;;;;;5121767;27;19924;-76
2022/06/27 05:55:38;;;;;;;;;;;17.10;99.90;;;;;;5110540;28;19924;-75
2022/06/27 05:58:04;;;;;;;;;;;17.10;99.90;;;;;;5108661;27;19916;-74
2022/06/27 06:00:30;;;;;;;;;;;17.20;99.90;;;;;;5105483;28;20039;-74
2022/06/27 06:02:57;;;;;;;;;;;17.30;99.90;;;;;;5109320;28;19915;-75
2022/06/27 06:05:23;;;;;;;;;;;17.40;99.90;;;;;;5106524;28;19916;-76
2022/06/27 06:07:49;;;;;;;;;;;17.50;99.90;;;;;;5109344;28;20007;-75
2022/06/27 06:10:15;;;;;;;;;;;17.60;99.90;;;;;;5099984;28;19916;-75
2022/06/27 06:12:41;;;;;;;;;;;17.60;99.90;;;;;;5092291;28;19967;-75
2022/06/27 06:15:08;;;;;;;;;;;17.60;99.90;;;;;;5102397;28;19924;-75
2022/06/27 06:17:35;;;;;;;;;;;17.60;99.90;;;;;;5110588;28;19916;-75
2022/06/27 06:20:01;;;;;;;;;;;17.60;99.90;;;;;;5090093;28;19963;-74
2022/06/27 06:22:26;;;;;;;;;;;17.50;99.90;;;;;;5104455;28;20375;-75
2022/06/27 06:24:52;;;;;;;;;;;17.50;99.90;;;;;;5098800;28;19916;-74
2022/06/27 06:27:18;;;;;;;;;;;17.60;99.90;;;;;;5085906;28;19930;-75
2022/06/27 06:29:44;;;;;;;;;;;17.40;99.90;;;;;;5106621;28;19954;-74
2022/06/27 06:32:11;;;;;;;;;;;17.40;99.90;;;;;;5106838;28;19920;-74
2022/06/27 06:34:37;;;;;;;;;;;17.40;99.90;;;;;;5107530;28;19924;-73
2022/06/27 06:37:03;;;;;;;;;;;17.40;99.90;;;;;;5107454;28;19920;-73
2022/06/27 06:39:28;;;;;;;;;;;17.40;99.90;;;;;;5109028;28;19919;-74
2022/06/27 06:41:54;;;;;;;;;;;17.50;99.90;;;;;;5107799;28;19923;-73
2022/06/27 06:44:20;;;;;;;;;;;17.40;99.90;;;;;;5109894;28;19916;-73
2022/06/27 06:46:45;;;;;;;;;;;17.40;99.90;;;;;;5108421;28;19922;-73
2022/06/27 06:49:11;;;;;;;;;;;17.40;99.90;;;;;;5108586;28;19923;-72
2022/06/27 06:51:39;;;;;;;;;;;17.50;99.90;;;;;;5110661;28;19924;-73
2022/06/27 06:54:05;;;;;;;;;;;17.50;99.90;;;;;;5109571;28;20355;-72
2022/06/27 06:56:31;;;;;;;;;;;17.60;99.90;;;;;;5108034;28;19927;-74
2022/06/27 06:58:58;;;;;;;;;;;17.60;99.90;;;;;;5110014;28;19926;-74
2022/06/27 07:01:24;;;;;;;;;;;17.60;99.90;;;;;;5092235;28;19924;-74
2022/06/27 07:03:50;;;;;;;;;;;17.60;99.90;;;;;;5108060;28;20363;-74
2022/06/27 07:06:17;;;;;;;;;;;17.50;99.90;;;;;;5109151;28;19926;-74
2022/06/27 07:08:44;;;;;;;;;;;17.60;99.90;;;;;;5090921;28;20412;-74
2022/06/27 07:11:10;;;;;;;;;;;17.50;99.90;;;;;;5099979;28;20320;-75
2022/06/27 07:13:37;;;;;;;;;;;17.50;99.90;;;;;;5104059;28;19967;-76
2022/06/27 07:16:05;;;;;;;;;;;17.60;99.90;;;;;;5108174;28;20010;-75
2022/06/27 07:18:31;;;;;;;;;;;17.70;99.90;;;;;;5107676;28;19920;-75
2022/06/27 07:20:57;;;;;;;;;;;17.70;99.90;;;;;;5090484;28;19923;-75
2022/06/27 07:23:22;;;;;;;;;;;17.80;99.90;;;;;;5092763;28;20312;-76
2022/06/27 07:25:48;;;;;;;;;;;17.70;99.90;;;;;;5106494;28;20425;-75
2022/06/27 07:28:15;;;;;;;;;;;17.60;99.90;;;;;;5108154;28;19938;-75
2022/06/27 07:30:42;;;;;;;;;;;17.60;99.90;;;;;;5094915;28;20370;-75
2022/06/27 07:33:08;;;;;;;;;;;17.60;99.90;;;;;;5097290;28;20023;-75
2022/06/27 07:35:33;;;;;;;;;;;17.60;99.90;;;;;;5107637;28;19924;-75
2022/06/27 07:38:00;;;;;;;;;;;17.50;99.90;;;;;;5111859;28;19919;-75
2022/06/27 07:40:25;;;;;;;;;;;17.50;99.90;;;;;;5111963;28;20367;-76
2022/06/27 07:42:52;;;;;;;;;;;17.50;99.90;;;;;;5112089;28;19930;-75
2022/06/27 07:45:18;;;;;;;;;;;17.60;99.90;;;;;;5111214;28;19969;-76
2022/06/27 07:47:44;;;;;;;;;;;17.60;99.90;;;;;;5112897;28;19964;-74
2022/06/27 07:50:11;;;;;;;;;;;17.50;99.90;;;;;;5111333;28;19915;-74
2022/06/27 07:55:24;;;;;;;;;;;17.50;99.90;;;;;;5109867;28;20007;-74
2022/06/27 07:57:52;;;;;;;;;;;17.50;99.90;;;;;;5107616;28;19920;-74
2022/06/27 08:00:18;;;;;;;;;;;17.50;99.90;;;;;;5109677;28;19973;-73
2022/06/27 08:02:44;;;;;;;;;;;17.50;99.90;;;;;;5110955;28;20271;-74
2022/06/27 08:05:10;;;;;;;;;;;17.50;99.90;;;;;;5092723;28;19916;-75
2022/06/27 08:07:36;;;;;;;;;;;17.50;99.90;;;;;;5107966;28;19927;-74
2022/06/27 08:10:03;;;;;;;;;;;17.50;99.90;;;;;;5098106;28;20010;-74
2022/06/27 08:12:31;;;;;;;;;;;17.50;99.90;;;;;;5104416;28;20370;-74
2022/06/27 08:14:56;;;;;;;;;;;17.60;99.90;;;;;;5105194;28;20379;-76
2022/06/27 08:17:23;;;;;;;;;;;17.70;99.90;;;;;;5104496;28;19962;-76
2022/06/27 08:19:49;;;;;;;;;;;17.70;99.90;;;;;;5113397;28;19919;-75
2022/06/27 08:22:14;;;;;;;;;;;17.90;99.90;;;;;;5113196;28;19942;-75
2022/06/27 08:24:40;;;;;;;;;;;17.90;99.90;;;;;;5112697;28;19916;-75
2022/06/27 08:27:07;;;;;;;;;;;18.00;99.90;;;;;;5111998;28;19969;-75
2022/06/27 08:29:32;;;;;;;;;;;18.20;99.90;;;;;;5095696;28;19966;-75
2022/06/27 08:31:58;;;;;;;;;;;18.20;99.90;;;;;;5112719;28;19976;-75
2022/06/27 08:34:23;;;;;;;;;;;18.40;99.90;;;;;;5112869;28;19915;-75
2022/06/27 08:36:50;;;;;;;;;;;18.50;99.90;;;;;;5111493;28;19915;-75
2022/06/27 08:39:16;;;;;;;;;;;18.60;99.90;;;;;;5112573;28;19919;-75
2022/06/27 08:41:44;;;;;;;;;;;18.70;99.90;;;;;;5111712;28;19953;-75
2022/06/27 08:44:09;;;;;;;;;;;18.70;99.90;;;;;;5112679;28;19915;-75
2022/06/27 08:46:35;;;;;;;;;;;18.80;99.90;;;;;;5111852;28;20289;-75
2022/06/27 08:49:02;;;;;;;;;;;18.70;99.90;;;;;;5112671;28;19919;-74
2022/06/27 08:51:28;;;;;;;;;;;18.80;99.90;;;;;;5112328;28;19915;-75
2022/06/27 08:53:54;;;;;;;;;;;18.60;99.90;;;;;;5112272;28;20395;-75
2022/06/27 08:56:20;;;;;;;;;;;18.70;99.90;;;;;;5111260;28;19916;-75
2022/06/27 08:58:47;;;;;;;;;;;18.60;99.90;;;;;;5082913;28;20315;-77
2022/06/27 09:01:21;;;;;;;;;;;18.50;99.90;;;;;;5109205;27;19919;-78
2022/06/27 09:04:09;;;;;;;;;;;18.50;99.90;;;;;;5097273;27;19922;-78
2022/06/27 09:06:41;;;;;;;;;;;18.40;99.90;;;;;;5108322;27;20013;-78
2022/06/27 09:09:08;;;;;;;;;;;18.50;99.90;;;;;;5100268;27;19965;-78
2022/06/27 09:11:38;;;;;;;;;;;18.50;99.90;;;;;;5107175;27;20333;-77
2022/06/27 09:14:05;;;;;;;;;;;18.60;99.90;;;;;;5115160;27;19922;-77
2022/06/27 09:16:31;;;;;;;;;;;18.60;99.90;;;;;;5115203;27;19959;-76
2022/06/27 09:18:57;;;;;;;;;;;18.70;99.90;;;;;;5114869;27;19959;-77
2022/06/27 09:21:25;;;;;;;;;;;19.00;99.90;;;;;;5114807;27;20385;-77
2022/06/27 09:23:58;;;;;;;;;;;19.20;99.90;;;;;;5111136;27;20281;-77
2022/06/27 09:26:27;;;;;;;;;;;19.20;99.90;;;;;;5114530;27;20366;-77
2022/06/27 09:28:53;;;;;;;;;;;19.40;99.90;;;;;;5114282;27;19954;-77
2022/06/27 09:31:28;;;;;;;;;;;19.40;99.90;;;;;;5114013;27;19915;-76
2022/06/27 09:34:14;;;;;;;;;;;19.40;99.90;;;;;;5126431;27;20389;-77
2022/06/27 09:36:42;;;;;;;;;;;19.30;99.90;;;;;;5110273;27;19930;-76
2022/06/27 09:39:16;;;;;;;;;;;19.20;99.90;;;;;;5112088;27;19922;-75
2022/06/27 09:41:45;;;;;;;;;;;19.10;99.90;;;;;;5109012;27;20010;-75
2022/06/27 09:44:11;;;;;;;;;;;19.00;99.90;;;;;;5115178;27;19972;-75
2022/06/27 09:46:42;;;;;;;;;;;18.90;99.90;;;;;;5115418;27;20319;-75
2022/06/27 09:49:12;;;;;;;;;;;18.80;99.90;;;;;;5115239;27;20002;-75
2022/06/27 09:51:38;;;;;;;;;;;18.80;99.90;;;;;;5115045;27;19915;-75
2022/06/27 09:54:10;;;;;;;;;;;18.80;99.90;;;;;;5112161;27;20277;-76
2022/06/27 09:56:39;;;;;;;;;;;18.70;99.90;;;;;;5104723;27;19994;-75
2022/06/27 09:59:07;;;;;;;;;;;18.80;99.90;;;;;;5113683;27;19927;-74
2022/06/27 10:01:33;;;;;;;;;;;18.80;99.90;;;;;;5114787;27;20029;-74
2022/06/27 10:04:00;;;;;;;;;;;18.80;99.90;;;;;;5112118;27;20001;-75
2022/06/27 10:06:25;;;;;;;;;;;18.70;99.90;;;;;;5114446;28;19939;-75
2022/06/27 10:08:52;;;;;;;;;;;18.70;99.90;;;;;;5113907;27;19916;-75
2022/06/27 10:11:18;;;;;;;;;;;18.70;99.90;;;;;;5115106;27;19937;-75
2022/06/27 10:14:04;;;;;;;;;;;18.80;99.90;;;;;;5114185;28;19915;-75
2022/06/27 10:16:30;;;;;;;;;;;18.80;99.90;;;;;;5109533;27;20373;-75
2022/06/27 10:19:01;;;;;;;;;;;18.80;99.90;;;;;;5114776;27;20377;-74
2022/06/27 10:21:30;;;;;;;;;;;18.90;99.90;;;;;;5094474;28;19968;-75
2022/06/27 10:24:15;;;;;;;;;;;18.90;99.90;;;;;;5110715;28;19915;-74
2022/06/27 10:26:41;;;;;;;;;;;18.90;99.90;;;;;;5105458;28;19939;-76
2022/06/27 10:29:25;;;;;;;;;;;19.10;99.90;;;;;;5112439;28;19950;-76
2022/06/27 10:31:51;;;;;;;;;;;19.10;99.90;;;;;;5110615;28;20339;-76
2022/06/27 10:34:16;;;;;;;;;;;19.20;99.90;;;;;;5113747;28;19973;-76
2022/06/27 10:36:42;;;;;;;;;;;19.10;99.90;;;;;;5114104;28;20374;-76
2022/06/27 10:39:20;;;;;;;;;;;19.10;99.90;;;;;;5112033;28;19926;-76
2022/06/27 10:41:45;;;;;;;;;;;19.10;99.90;;;;;;5112130;28;19963;-77
2022/06/27 10:44:31;;;;;;;;;;;19.20;99.90;;;;;;5095270;28;19970;-75
2022/06/27 10:46:56;;;;;;;;;;;19.30;99.90;;;;;;5114330;28;19915;-75
2022/06/27 10:49:23;;;;;;;;;;;19.40;99.90;;;;;;5113607;28;19919;-76
2022/06/27 10:51:49;;;;;;;;;;;19.40;99.90;;;;;;5141947;27;19915;-75
2022/06/27 10:54:14;;;;;;;;;;;19.30;99.90;;;;;;5113478;28;20338;-74
2022/06/27 10:56:51;;;;;;;;;;;19.30;99.90;;;;;;5113803;28;20362;-74
2022/06/27 10:59:16;;;;;;;;;;;19.40;99.90;;;;;;5083630;28;20317;-75
2022/06/27 11:02:02;;;;;;;;;;;19.50;99.90;;;;;;5113568;28;19923;-74
2022/06/27 11:04:29;;;;;;;;;;;19.50;99.90;;;;;;5100902;28;19919;-74
2022/06/27 11:07:03;;;;;;;;;;;19.50;99.90;;;;;;5114271;28;19939;-75
2022/06/27 11:09:45;;;;;;;;;;;19.60;99.90;;;;;;5098857;27;20308;-74
2022/06/27 11:12:13;;;;;;;;;;;19.60;99.90;;;;;;5117536;27;19938;-75
2022/06/27 11:14:42;;;;;;;;;;;19.80;99.90;;;;;;5117887;27;20266;-74
2022/06/27 11:17:25;;;;;;;;;;;19.80;99.90;;;;;;5117300;27;19915;-75
2022/06/27 11:20:06;;;;;;;;;;;20.00;99.90;;;;;;5117810;27;19925;-75
2022/06/27 11:22:32;;;;;;;;;;;20.00;99.90;;;;;;5100010;27;20323;-74
2022/06/27 11:24:57;;;;;;;;;;;20.00;99.90;;;;;;5117623;27;19915;-75
2022/06/27 11:27:23;;;;;;;;;;;20.00;99.90;;;;;;5109595;27;20014;-75
2022/06/27 11:32:33;;;;;;;;;;;20.00;99.90;;;;;;5113994;28;20006;-74
2022/06/27 11:34:58;;;;;;;;;;;20.10;99.90;;;;;;5106851;27;19962;-74
2022/06/27 11:37:27;;;;;;;;;;;20.10;99.90;;;;;;5116909;27;19926;-74
2022/06/27 11:40:05;;;;;;;;;;;20.00;99.90;;;;;;5117642;27;20321;-74
2022/06/27 11:42:32;;;;;;;;;;;19.90;99.90;;;;;;5117483;27;20338;-75
2022/06/27 11:45:09;;;;;;;;;;;19.80;99.90;;;;;;5117481;27;19923;-74
2022/06/27 11:47:37;;;;;;;;;;;19.70;99.90;;;;;;5116320;27;19923;-74
2022/06/27 11:50:04;;;;;;;;;;;19.70;99.90;;;;;;5117181;27;19938;-74
2022/06/27 11:52:40;;;;;;;;;;;19.70;99.90;;;;;;5117160;27;19922;-75
2022/06/27 11:55:07;;;;;;;;;;;19.70;99.90;;;;;;5117231;27;20303;-75
2022/06/27 11:57:33;;;;;;;;;;;19.80;99.90;;;;;;5117207;27;19919;-75
2022/06/27 12:00:00;;;;;;;;;;;19.70;99.90;;;;;;5102281;27;20319;-74
2022/06/27 12:02:34;;;;;;;;;;;19.80;99.90;;;;;;5116662;27;19919;-74
2022/06/27 12:05:07;;;;;;;;;;;19.80;99.90;;;;;;5116767;27;19963;-74
2022/06/27 12:07:52;;;;;;;;;;;19.90;99.90;;;;;;5112733;27;19923;-75
2022/06/27 12:10:38;;;;;;;;;;;19.80;99.90;;;;;;5116642;27;20010;-74
2022/06/27 12:13:08;;;;;;;;;;;19.80;99.90;;;;;;5116469;27;19915;-74
2022/06/27 12:15:34;;;;;;;;;;;19.80;99.90;;;;;;5110493;27;19915;-74
2022/06/27 12:18:01;;;;;;;;;;;19.90;99.90;;;;;;5106508;28;20002;-74
2022/06/27 12:20:29;;;;;;;;;;;19.70;99.90;;;;;;5111443;28;19919;-74
2022/06/27 12:22:54;;;;;;;;;;;19.70;99.90;;;;;;5116243;27;19926;-74
2022/06/27 12:25:21;;;;;;;;;;;19.70;99.90;;;;;;5116853;27;19916;-74
2022/06/27 12:27:47;;;;;;;;;;;19.70;99.90;;;;;;5116120;27;19967;-74
2022/06/27 12:30:13;;;;;;;;;;;19.70;99.90;;;;;;5116229;27;19919;-74
2022/06/27 12:32:39;;;;;;;;;;;19.80;99.90;;;;;;5098925;27;19926;-75
2022/06/27 12:35:05;;;;;;;;;;;19.90;99.90;;;;;;5116363;27;19915;-75
2022/06/27 12:37:30;;;;;;;;;;;20.00;99.90;;;;;;5113823;27;20400;-74
2022/06/27 12:39:56;;;;;;;;;;;19.90;99.90;;;;;;5104473;27;20401;-74
2022/06/27 12:42:22;;;;;;;;;;;20.00;99.90;;;;;;5115586;27;20068;-74
2022/06/27 12:44:47;;;;;;;;;;;20.00;99.90;;;;;;5095782;28;19927;-74
2022/06/27 12:47:13;;;;;;;;;;;20.00;99.90;;;;;;5114485;27;20320;-74
2022/06/27 12:49:38;;;;;;;;;;;20.10;99.90;;;;;;5115455;27;19915;-75
2022/06/27 12:52:04;;;;;;;;;;;20.20;99.90;;;;;;5115197;27;19919;-74
2022/06/27 12:54:30;;;;;;;;;;;20.30;99.90;;;;;;5115556;27;19937;-74
2022/06/27 12:56:55;;;;;;;;;;;20.40;99.90;;;;;;5115504;27;19929;-74
2022/06/27 12:59:21;;;;;;;;;;;20.20;99.90;;;;;;5115336;27;19923;-74
2022/06/27 13:01:47;;;;;;;;;;;20.20;99.90;;;;;;5115577;27;19923;-74
2022/06/27 13:04:12;;;;;;;;;;;20.10;99.90;;;;;;5115311;27;19919;-74
2022/06/27 13:06:38;;;;;;;;;;;20.00;99.90;;;;;;5115287;27;19915;-74
2022/06/27 13:09:03;;;;;;;;;;;20.00;99.90;;;;;;5109148;28;19915;-74
2022/06/27 13:11:29;;;;;;;;;;;19.90;99.90;;;;;;5094748;28;19924;-74
2022/06/27 13:13:54;;;;;;;;;;;19.90;99.90;;;;;;5108897;28;19919;-74
2022/06/27 13:16:20;;;;;;;;;;;19.90;99.90;;;;;;5094777;28;19915;-74
2022/06/27 13:18:46;;;;;;;;;;;19.80;99.90;;;;;;5094755;28;19915;-74
2022/06/27 13:21:11;;;;;;;;;;;19.90;99.90;;;;;;5097440;27;19927;-74
2022/06/27 13:23:37;;;;;;;;;;;20.00;99.90;;;;;;5115180;27;19915;-74
2022/06/27 13:26:04;;;;;;;;;;;20.00;99.90;;;;;;5115242;27;19919;-74
2022/06/27 13:28:30;;;;;;;;;;;19.90;99.90;;;;;;5114644;27;19939;-74
2022/06/27 13:30:56;;;;;;;;;;;19.90;99.90;;;;;;5100721;27;20006;-74
2022/06/27 13:33:21;;;;;;;;;;;19.90;99.90;;;;;;5114540;27;20028;-74
2022/06/27 13:35:47;;;;;;;;;;;19.90;99.90;;;;;;5095462;27;19942;-78
2022/06/27 13:38:13;;;;;;;;;;;19.90;99.90;;;;;;5105594;28;19916;-76
2022/06/27 13:40:38;;;;;;;;;;;20.00;99.90;;;;;;5107770;27;19945;-76
2022/06/27 13:43:04;;;;;;;;;;;20.00;99.90;;;;;;5102911;27;19965;-76
2022/06/27 13:45:30;;;;;;;;;;;20.10;99.90;;;;;;5096134;27;19926;-76
2022/06/27 13:47:56;;;;;;;;;;;20.10;99.90;;;;;;5110135;27;20029;-76
2022/06/27 13:50:21;;;;;;;;;;;20.10;99.90;;;;;;5088815;28;19979;-76
2022/06/27 13:52:47;;;;;;;;;;;20.10;99.90;;;;;;5106093;28;19990;-77
2022/06/27 13:55:12;;;;;;;;;;;20.10;99.90;;;;;;5105598;27;20270;-76
2022/06/27 13:57:38;;;;;;;;;;;20.00;99.90;;;;;;5113093;27;20236;-76
2022/06/27 14:00:04;;;;;;;;;;;19.90;99.90;;;;;;5113394;27;19924;-76
2022/06/27 14:02:31;;;;;;;;;;;19.90;99.90;;;;;;5113653;27;19946;-76
2022/06/27 14:04:56;;;;;;;;;;;19.90;99.90;;;;;;5113569;27;19951;-76
2022/06/27 14:07:39;;;;;;;;;;;19.90;99.90;;;;;;5113603;27;19927;-76
2022/06/27 14:10:06;;;;;;;;;;;19.90;99.90;;;;;;5099266;28;19916;-76
2022/06/27 14:12:31;;;;;;;;;;;19.80;99.90;;;;;;5113389;27;19919;-76
2022/06/27 14:14:57;;;;;;;;;;;19.90;99.90;;;;;;5100922;28;19925;-76
2022/06/27 14:17:22;;;;;;;;;;;19.90;99.90;;;;;;5107236;28;19915;-76
2022/06/27 14:19:48;;;;;;;;;;;19.90;99.90;;;;;;5111169;28;19916;-76
2022/06/27 14:22:14;;;;;;;;;;;19.90;99.90;;;;;;5104303;28;19915;-76
2022/06/27 14:24:39;;;;;;;;;;;19.90;99.90;;;;;;5113497;28;19919;-76